sensor_id;sensor_type;location;lat;lon;timestamp;temperature;humidity
24426;DHT22;12611;44.446;26.000;2022-08-19T00:02:02;26.40;75.80
24426;DHT22;12611;44.446;26.000;2022-08-19T00:04:34;26.40;76.00
24426;DHT22;12611;44.446;26.000;2022-08-19T00:07:04;26.40;76.00
24426;DHT22;12611;44.446;26.000;2022-08-19T00:09:35;26.40;76.10
24426;DHT22;12611;44.446;26.000;2022-08-19T00:12:05;26.40;76.20
24426;DHT22;12611;44.446;26.000;2022-08-19T00:14:34;26.30;76.10
24426;DHT22;12611;44.446;26.000;2022-08-19T00:17:03;26.30;76.10
24426;DHT22;12611;44.446;26.000;2022-08-19T00:19:33;26.30;76.20
24426;DHT22;12611;44.446;26.000;2022-08-19T00:22:03;26.30;76.30
24426;DHT22;12611;44.446;26.000;2022-08-19T00:24:45;26.20;76.20
24426;DHT22;12611;44.446;26.000;2022-08-19T00:27:18;26.20;76.30
24426;DHT22;12611;44.446;26.000;2022-08-19T00:29:52;26.20;76.30
24426;DHT22;12611;44.446;26.000;2022-08-19T00:32:24;26.20;76.40
24426;DHT22;12611;44.446;26.000;2022-08-19T00:34:53;26.10;76.50
24426;DHT22;12611;44.446;26.000;2022-08-19T00:37:25;26.10;76.50
24426;DHT22;12611;44.446;26.000;2022-08-19T00:39:58;26.10;76.60
24426;DHT22;12611;44.446;26.000;2022-08-19T00:42:28;26.10;76.70
24426;DHT22;12611;44.446;26.000;2022-08-19T00:44:57;26.10;76.80
24426;DHT22;12611;44.446;26.000;2022-08-19T00:47:28;26.00;76.90
24426;DHT22;12611;44.446;26.000;2022-08-19T00:49:57;26.00;77.10
24426;DHT22;12611;44.446;26.000;2022-08-19T00:52:33;26.00;77.30
24426;DHT22;12611;44.446;26.000;2022-08-19T00:55:06;25.90;77.30
24426;DHT22;12611;44.446;26.000;2022-08-19T00:57:43;25.90;77.50
24426;DHT22;12611;44.446;26.000;2022-08-19T01:00:23;25.80;77.60
24426;DHT22;12611;44.446;26.000;2022-08-19T01:02:52;25.80;77.70
24426;DHT22;12611;44.446;26.000;2022-08-19T01:05:27;25.80;77.80
24426;DHT22;12611;44.446;26.000;2022-08-19T01:07:58;25.80;78.10
24426;DHT22;12611;44.446;26.000;2022-08-19T01:10:31;25.70;78.10
24426;DHT22;12611;44.446;26.000;2022-08-19T01:13:13;25.70;78.20
24426;DHT22;12611;44.446;26.000;2022-08-19T01:15:50;25.70;78.40
24426;DHT22;12611;44.446;26.000;2022-08-19T01:18:19;25.60;78.40
24426;DHT22;12611;44.446;26.000;2022-08-19T01:20:49;25.60;78.40
24426;DHT22;12611;44.446;26.000;2022-08-19T01:23:22;25.60;78.50
24426;DHT22;12611;44.446;26.000;2022-08-19T01:26:11;25.60;78.60
24426;DHT22;12611;44.446;26.000;2022-08-19T01:28:41;25.50;78.70
24426;DHT22;12611;44.446;26.000;2022-08-19T01:31:17;25.50;78.80
24426;DHT22;12611;44.446;26.000;2022-08-19T01:33:56;25.50;79.00
24426;DHT22;12611;44.446;26.000;2022-08-19T01:36:28;25.50;79.10
24426;DHT22;12611;44.446;26.000;2022-08-19T01:38:59;25.40;79.20
24426;DHT22;12611;44.446;26.000;2022-08-19T01:41:28;25.40;79.50
24426;DHT22;12611;44.446;26.000;2022-08-19T01:43:58;25.40;79.70
24426;DHT22;12611;44.446;26.000;2022-08-19T01:46:46;25.40;79.80
24426;DHT22;12611;44.446;26.000;2022-08-19T01:49:16;25.40;79.90
24426;DHT22;12611;44.446;26.000;2022-08-19T01:51:45;25.30;79.80
24426;DHT22;12611;44.446;26.000;2022-08-19T01:54:16;25.40;80.00
24426;DHT22;12611;44.446;26.000;2022-08-19T01:56:58;25.40;80.10
24426;DHT22;12611;44.446;26.000;2022-08-19T01:59:28;25.30;80.10
24426;DHT22;12611;44.446;26.000;2022-08-19T02:01:58;25.30;80.10
24426;DHT22;12611;44.446;26.000;2022-08-19T02:04:26;25.30;80.10
24426;DHT22;12611;44.446;26.000;2022-08-19T02:06:54;25.30;80.10
24426;DHT22;12611;44.446;26.000;2022-08-19T02:09:24;25.30;80.20
24426;DHT22;12611;44.446;26.000;2022-08-19T02:11:53;25.30;80.40
24426;DHT22;12611;44.446;26.000;2022-08-19T02:14:21;25.20;80.30
24426;DHT22;12611;44.446;26.000;2022-08-19T02:16:50;25.20;80.50
24426;DHT22;12611;44.446;26.000;2022-08-19T02:19:19;25.20;80.60
24426;DHT22;12611;44.446;26.000;2022-08-19T02:21:57;25.20;82.10
24426;DHT22;12611;44.446;26.000;2022-08-19T02:24:27;25.20;81.80
24426;DHT22;12611;44.446;26.000;2022-08-19T02:26:56;25.20;81.80
24426;DHT22;12611;44.446;26.000;2022-08-19T02:29:25;25.20;81.80
24426;DHT22;12611;44.446;26.000;2022-08-19T02:31:54;25.20;81.80
24426;DHT22;12611;44.446;26.000;2022-08-19T02:34:25;25.10;81.80
24426;DHT22;12611;44.446;26.000;2022-08-19T02:36:53;25.10;81.80
24426;DHT22;12611;44.446;26.000;2022-08-19T02:39:24;25.10;81.90
24426;DHT22;12611;44.446;26.000;2022-08-19T02:41:53;25.00;81.90
24426;DHT22;12611;44.446;26.000;2022-08-19T02:44:21;25.00;82.10
24426;DHT22;12611;44.446;26.000;2022-08-19T02:46:57;25.00;82.10
24426;DHT22;12611;44.446;26.000;2022-08-19T02:49:26;25.00;82.20
24426;DHT22;12611;44.446;26.000;2022-08-19T02:51:54;25.00;82.20
24426;DHT22;12611;44.446;26.000;2022-08-19T02:54:22;25.00;82.30
24426;DHT22;12611;44.446;26.000;2022-08-19T02:56:52;24.90;83.20
24426;DHT22;12611;44.446;26.000;2022-08-19T02:59:21;24.90;82.40
24426;DHT22;12611;44.446;26.000;2022-08-19T03:01:52;24.90;82.40
24426;DHT22;12611;44.446;26.000;2022-08-19T03:04:23;24.90;82.50
24426;DHT22;12611;44.446;26.000;2022-08-19T03:06:53;24.90;82.50
24426;DHT22;12611;44.446;26.000;2022-08-19T03:09:28;24.90;82.60
24426;DHT22;12611;44.446;26.000;2022-08-19T03:11:58;24.90;82.60
24426;DHT22;12611;44.446;26.000;2022-08-19T03:14:30;24.90;82.70
24426;DHT22;12611;44.446;26.000;2022-08-19T03:17:03;24.80;82.60
24426;DHT22;12611;44.446;26.000;2022-08-19T03:19:31;24.90;82.70
24426;DHT22;12611;44.446;26.000;2022-08-19T03:22:00;24.80;82.70
24426;DHT22;12611;44.446;26.000;2022-08-19T03:24:29;24.80;82.70
24426;DHT22;12611;44.446;26.000;2022-08-19T03:27:03;24.80;82.70
24426;DHT22;12611;44.446;26.000;2022-08-19T03:29:34;24.80;82.80
24426;DHT22;12611;44.446;26.000;2022-08-19T03:32:13;24.80;82.90
24426;DHT22;12611;44.446;26.000;2022-08-19T03:34:59;24.80;82.90
24426;DHT22;12611;44.446;26.000;2022-08-19T03:37:31;24.80;82.90
24426;DHT22;12611;44.446;26.000;2022-08-19T03:39:59;24.80;82.90
24426;DHT22;12611;44.446;26.000;2022-08-19T03:42:34;24.80;83.00
24426;DHT22;12611;44.446;26.000;2022-08-19T03:45:17;24.80;83.10
24426;DHT22;12611;44.446;26.000;2022-08-19T03:47:46;24.80;83.20
24426;DHT22;12611;44.446;26.000;2022-08-19T03:50:15;24.70;83.20
24426;DHT22;12611;44.446;26.000;2022-08-19T03:52:48;24.70;83.20
24426;DHT22;12611;44.446;26.000;2022-08-19T03:55:18;24.80;83.40
24426;DHT22;12611;44.446;26.000;2022-08-19T03:57:48;24.70;83.40
24426;DHT22;12611;44.446;26.000;2022-08-19T04:00:25;24.70;83.40
24426;DHT22;12611;44.446;26.000;2022-08-19T04:03:03;24.70;83.40
24426;DHT22;12611;44.446;26.000;2022-08-19T04:05:32;24.70;83.50
24426;DHT22;12611;44.446;26.000;2022-08-19T04:08:00;24.70;83.60
24426;DHT22;12611;44.446;26.000;2022-08-19T04:10:29;24.70;83.60
24426;DHT22;12611;44.446;26.000;2022-08-19T04:13:05;24.70;83.80
24426;DHT22;12611;44.446;26.000;2022-08-19T04:15:38;24.70;84.00
24426;DHT22;12611;44.446;26.000;2022-08-19T04:18:08;24.70;84.00
24426;DHT22;12611;44.446;26.000;2022-08-19T04:20:43;24.80;84.10
24426;DHT22;12611;44.446;26.000;2022-08-19T04:23:14;24.80;84.20
24426;DHT22;12611;44.446;26.000;2022-08-19T04:25:45;24.80;84.10
24426;DHT22;12611;44.446;26.000;2022-08-19T04:28:15;24.80;84.10
24426;DHT22;12611;44.446;26.000;2022-08-19T04:30:46;24.80;84.20
24426;DHT22;12611;44.446;26.000;2022-08-19T04:33:21;24.90;84.20
24426;DHT22;12611;44.446;26.000;2022-08-19T04:35:54;24.90;84.20
24426;DHT22;12611;44.446;26.000;2022-08-19T04:38:31;24.90;84.20
24426;DHT22;12611;44.446;26.000;2022-08-19T04:41:03;24.90;84.20
24426;DHT22;12611;44.446;26.000;2022-08-19T04:43:50;25.00;84.30
24426;DHT22;12611;44.446;26.000;2022-08-19T04:46:19;25.00;84.20
24426;DHT22;12611;44.446;26.000;2022-08-19T04:49:07;25.00;84.20
24426;DHT22;12611;44.446;26.000;2022-08-19T04:51:41;25.10;84.20
24426;DHT22;12611;44.446;26.000;2022-08-19T04:54:14;25.10;84.20
24426;DHT22;12611;44.446;26.000;2022-08-19T04:57:04;25.20;84.40
24426;DHT22;12611;44.446;26.000;2022-08-19T04:59:36;25.20;84.20
24426;DHT22;12611;44.446;26.000;2022-08-19T05:02:08;25.20;84.20
24426;DHT22;12611;44.446;26.000;2022-08-19T05:04:38;25.30;84.30
24426;DHT22;12611;44.446;26.000;2022-08-19T05:07:08;25.30;84.20
24426;DHT22;12611;44.446;26.000;2022-08-19T05:09:37;25.40;84.30
24426;DHT22;12611;44.446;26.000;2022-08-19T05:12:25;25.40;84.20
24426;DHT22;12611;44.446;26.000;2022-08-19T05:14:57;25.40;84.20
24426;DHT22;12611;44.446;26.000;2022-08-19T05:17:26;25.50;84.10
24426;DHT22;12611;44.446;26.000;2022-08-19T05:20:01;25.60;84.10
24426;DHT22;12611;44.446;26.000;2022-08-19T05:22:50;25.60;83.90
24426;DHT22;12611;44.446;26.000;2022-08-19T05:25:20;25.60;83.80
24426;DHT22;12611;44.446;26.000;2022-08-19T05:27:52;25.70;83.80
24426;DHT22;12611;44.446;26.000;2022-08-19T05:30:26;25.80;83.70
24426;DHT22;12611;44.446;26.000;2022-08-19T05:33:13;25.80;83.60
24426;DHT22;12611;44.446;26.000;2022-08-19T05:35:42;25.90;83.70
24426;DHT22;12611;44.446;26.000;2022-08-19T05:38:12;26.00;83.70
24426;DHT22;12611;44.446;26.000;2022-08-19T05:40:41;26.00;83.70
24426;DHT22;12611;44.446;26.000;2022-08-19T05:43:14;26.10;83.80
24426;DHT22;12611;44.446;26.000;2022-08-19T05:49:43;26.20;83.60
24426;DHT22;12611;44.446;26.000;2022-08-19T05:52:13;26.30;83.50
24426;DHT22;12611;44.446;26.000;2022-08-19T05:58:04;26.40;83.30
24426;DHT22;12611;44.446;26.000;2022-08-19T06:00:34;26.50;83.10
24426;DHT22;12611;44.446;26.000;2022-08-19T06:03:03;26.60;83.70
24426;DHT22;12611;44.446;26.000;2022-08-19T06:05:40;26.60;82.70
24426;DHT22;12611;44.446;26.000;2022-08-19T06:08:19;26.70;82.50
24426;DHT22;12611;44.446;26.000;2022-08-19T06:11:15;26.80;82.20
24426;DHT22;12611;44.446;26.000;2022-08-19T06:13:45;26.90;81.40
24426;DHT22;12611;44.446;26.000;2022-08-19T06:16:18;26.90;81.20
24426;DHT22;12611;44.446;26.000;2022-08-19T06:18:51;27.00;80.90
24426;DHT22;12611;44.446;26.000;2022-08-19T06:21:25;27.10;80.80
24426;DHT22;12611;44.446;26.000;2022-08-19T06:23:55;27.20;80.60
24426;DHT22;12611;44.446;26.000;2022-08-19T06:26:24;27.20;80.40
24426;DHT22;12611;44.446;26.000;2022-08-19T06:28:53;27.30;80.10
24426;DHT22;12611;44.446;26.000;2022-08-19T06:31:24;27.40;79.90
24426;DHT22;12611;44.446;26.000;2022-08-19T06:33:53;27.50;79.70
24426;DHT22;12611;44.446;26.000;2022-08-19T06:36:25;27.60;79.60
24426;DHT22;12611;44.446;26.000;2022-08-19T06:38:59;27.70;79.40
24426;DHT22;12611;44.446;26.000;2022-08-19T06:41:28;27.70;78.70
24426;DHT22;12611;44.446;26.000;2022-08-19T06:43:57;27.80;78.50
24426;DHT22;12611;44.446;26.000;2022-08-19T06:46:26;27.90;78.40
24426;DHT22;12611;44.446;26.000;2022-08-19T06:49:01;27.90;78.10
24426;DHT22;12611;44.446;26.000;2022-08-19T06:51:33;28.00;77.90
24426;DHT22;12611;44.446;26.000;2022-08-19T06:54:09;28.10;77.60
24426;DHT22;12611;44.446;26.000;2022-08-19T06:56:45;28.20;77.40
24426;DHT22;12611;44.446;26.000;2022-08-19T06:59:17;28.30;76.80
24426;DHT22;12611;44.446;26.000;2022-08-19T07:01:50;28.40;76.00
24426;DHT22;12611;44.446;26.000;2022-08-19T07:04:21;28.40;75.80
24426;DHT22;12611;44.446;26.000;2022-08-19T07:06:57;28.50;75.70
24426;DHT22;12611;44.446;26.000;2022-08-19T07:09:45;28.60;75.10
24426;DHT22;12611;44.446;26.000;2022-08-19T07:12:28;28.60;74.70
24426;DHT22;12611;44.446;26.000;2022-08-19T07:14:59;28.70;74.40
24426;DHT22;12611;44.446;26.000;2022-08-19T07:17:29;28.80;74.10
24426;DHT22;12611;44.446;26.000;2022-08-19T07:20:00;28.90;73.90
24426;DHT22;12611;44.446;26.000;2022-08-19T07:22:37;28.90;73.70
24426;DHT22;12611;44.446;26.000;2022-08-19T07:25:07;29.00;73.00
24426;DHT22;12611;44.446;26.000;2022-08-19T07:27:37;29.00;72.90
24426;DHT22;12611;44.446;26.000;2022-08-19T07:30:07;29.10;72.50
24426;DHT22;12611;44.446;26.000;2022-08-19T07:32:38;29.20;72.00
24426;DHT22;12611;44.446;26.000;2022-08-19T07:35:07;29.30;71.60
24426;DHT22;12611;44.446;26.000;2022-08-19T07:37:38;29.30;71.20
24426;DHT22;12611;44.446;26.000;2022-08-19T07:40:12;29.40;71.20
24426;DHT22;12611;44.446;26.000;2022-08-19T07:42:41;29.50;71.30
24426;DHT22;12611;44.446;26.000;2022-08-19T07:45:10;29.50;70.60
24426;DHT22;12611;44.446;26.000;2022-08-19T07:47:38;29.60;70.30
24426;DHT22;12611;44.446;26.000;2022-08-19T07:50:24;29.60;70.50
24426;DHT22;12611;44.446;26.000;2022-08-19T07:52:54;29.60;70.30
24426;DHT22;12611;44.446;26.000;2022-08-19T07:55:25;29.70;70.10
24426;DHT22;12611;44.446;26.000;2022-08-19T07:58:13;29.70;70.00
24426;DHT22;12611;44.446;26.000;2022-08-19T08:00:46;29.80;69.00
24426;DHT22;12611;44.446;26.000;2022-08-19T08:03:17;29.80;69.10
24426;DHT22;12611;44.446;26.000;2022-08-19T08:05:46;29.90;68.80
24426;DHT22;12611;44.446;26.000;2022-08-19T08:08:34;29.90;68.60
24426;DHT22;12611;44.446;26.000;2022-08-19T08:11:21;30.00;68.70
24426;DHT22;12611;44.446;26.000;2022-08-19T08:13:56;30.00;68.40
24426;DHT22;12611;44.446;26.000;2022-08-19T08:16:30;30.10;68.40
24426;DHT22;12611;44.446;26.000;2022-08-19T08:19:00;30.10;68.20
24426;DHT22;12611;44.446;26.000;2022-08-19T08:21:41;30.20;68.30
24426;DHT22;12611;44.446;26.000;2022-08-19T08:24:12;30.20;68.20
24426;DHT22;12611;44.446;26.000;2022-08-19T08:26:42;30.30;67.40
24426;DHT22;12611;44.446;26.000;2022-08-19T08:29:13;30.30;67.00
24426;DHT22;12611;44.446;26.000;2022-08-19T08:31:43;30.40;66.30
24426;DHT22;12611;44.446;26.000;2022-08-19T08:34:24;30.40;66.50
24426;DHT22;12611;44.446;26.000;2022-08-19T08:36:52;30.40;65.90
24426;DHT22;12611;44.446;26.000;2022-08-19T08:39:41;30.40;65.20
24426;DHT22;12611;44.446;26.000;2022-08-19T08:42:14;30.50;64.80
24426;DHT22;12611;44.446;26.000;2022-08-19T08:44:53;30.50;64.50
24426;DHT22;12611;44.446;26.000;2022-08-19T08:47:25;30.60;64.50
24426;DHT22;12611;44.446;26.000;2022-08-19T08:50:01;30.60;65.20
24426;DHT22;12611;44.446;26.000;2022-08-19T08:52:37;30.70;64.00
24426;DHT22;12611;44.446;26.000;2022-08-19T08:55:13;30.70;64.30
24426;DHT22;12611;44.446;26.000;2022-08-19T08:57:51;30.70;64.30
24426;DHT22;12611;44.446;26.000;2022-08-19T09:00:23;30.80;64.20
24426;DHT22;12611;44.446;26.000;2022-08-19T09:02:54;30.80;63.50
24426;DHT22;12611;44.446;26.000;2022-08-19T09:05:23;30.90;63.10
24426;DHT22;12611;44.446;26.000;2022-08-19T09:08:08;30.90;62.40
24426;DHT22;12611;44.446;26.000;2022-08-19T09:10:49;31.00;62.50
24426;DHT22;12611;44.446;26.000;2022-08-19T09:13:43;31.00;62.50
24426;DHT22;12611;44.446;26.000;2022-08-19T09:16:16;31.10;61.70
24426;DHT22;12611;44.446;26.000;2022-08-19T09:19:05;31.10;62.20
24426;DHT22;12611;44.446;26.000;2022-08-19T09:21:35;31.20;62.20
24426;DHT22;12611;44.446;26.000;2022-08-19T09:24:06;31.20;61.90
24426;DHT22;12611;44.446;26.000;2022-08-19T09:26:36;31.20;62.70
24426;DHT22;12611;44.446;26.000;2022-08-19T09:29:19;31.30;61.50
24426;DHT22;12611;44.446;26.000;2022-08-19T09:31:48;31.40;61.40
24426;DHT22;12611;44.446;26.000;2022-08-19T09:34:21;31.40;61.30
24426;DHT22;12611;44.446;26.000;2022-08-19T09:36:50;31.50;61.10
24426;DHT22;12611;44.446;26.000;2022-08-19T09:39:21;31.50;61.10
24426;DHT22;12611;44.446;26.000;2022-08-19T09:41:51;31.60;61.00
24426;DHT22;12611;44.446;26.000;2022-08-19T09:44:20;31.60;60.90
24426;DHT22;12611;44.446;26.000;2022-08-19T09:46:55;31.70;60.80
24426;DHT22;12611;44.446;26.000;2022-08-19T09:49:25;31.70;60.30
24426;DHT22;12611;44.446;26.000;2022-08-19T09:51:54;31.70;59.80
24426;DHT22;12611;44.446;26.000;2022-08-19T09:54:23;31.70;59.80
24426;DHT22;12611;44.446;26.000;2022-08-19T09:56:54;31.70;60.20
24426;DHT22;12611;44.446;26.000;2022-08-19T09:59:23;31.70;60.30
24426;DHT22;12611;44.446;26.000;2022-08-19T10:01:54;31.80;59.60
24426;DHT22;12611;44.446;26.000;2022-08-19T10:04:36;31.90;59.70
24426;DHT22;12611;44.446;26.000;2022-08-19T10:07:18;32.00;59.70
24426;DHT22;12611;44.446;26.000;2022-08-19T10:10:03;32.00;59.60
24426;DHT22;12611;44.446;26.000;2022-08-19T10:12:35;32.20;59.70
24426;DHT22;12611;44.446;26.000;2022-08-19T10:15:06;32.20;59.10
24426;DHT22;12611;44.446;26.000;2022-08-19T10:17:35;32.20;58.70
24426;DHT22;12611;44.446;26.000;2022-08-19T10:20:05;32.30;59.20
24426;DHT22;12611;44.446;26.000;2022-08-19T10:22:33;32.40;59.30
24426;DHT22;12611;44.446;26.000;2022-08-19T10:25:06;32.50;58.60
24426;DHT22;12611;44.446;26.000;2022-08-19T10:27:36;32.50;58.80
24426;DHT22;12611;44.446;26.000;2022-08-19T10:30:07;32.60;58.40
24426;DHT22;12611;44.446;26.000;2022-08-19T10:32:39;32.60;58.50
24426;DHT22;12611;44.446;26.000;2022-08-19T10:35:13;32.60;58.50
24426;DHT22;12611;44.446;26.000;2022-08-19T10:37:48;32.60;57.80
24426;DHT22;12611;44.446;26.000;2022-08-19T10:40:27;32.70;57.60
24426;DHT22;12611;44.446;26.000;2022-08-19T10:42:57;32.60;57.90
24426;DHT22;12611;44.446;26.000;2022-08-19T10:45:26;32.60;58.20
24426;DHT22;12611;44.446;26.000;2022-08-19T10:47:58;32.50;58.00
24426;DHT22;12611;44.446;26.000;2022-08-19T10:50:26;32.50;58.20
24426;DHT22;12611;44.446;26.000;2022-08-19T10:53:13;32.40;58.00
24426;DHT22;12611;44.446;26.000;2022-08-19T10:55:46;32.50;58.00
24426;DHT22;12611;44.446;26.000;2022-08-19T10:58:35;32.50;58.20
24426;DHT22;12611;44.446;26.000;2022-08-19T11:01:06;32.70;58.10
24426;DHT22;12611;44.446;26.000;2022-08-19T11:03:37;32.70;57.80
24426;DHT22;12611;44.446;26.000;2022-08-19T11:06:08;32.70;57.30
24426;DHT22;12611;44.446;26.000;2022-08-19T11:08:36;32.80;57.70
24426;DHT22;12611;44.446;26.000;2022-08-19T11:11:08;32.90;58.00
24426;DHT22;12611;44.446;26.000;2022-08-19T11:13:40;33.00;57.30
24426;DHT22;12611;44.446;26.000;2022-08-19T11:16:11;32.90;56.60
24426;DHT22;12611;44.446;26.000;2022-08-19T11:18:43;32.90;57.00
24426;DHT22;12611;44.446;26.000;2022-08-19T11:21:14;33.00;57.20
24426;DHT22;12611;44.446;26.000;2022-08-19T11:23:44;32.90;57.10
24426;DHT22;12611;44.446;26.000;2022-08-19T11:26:15;32.90;57.10
24426;DHT22;12611;44.446;26.000;2022-08-19T11:28:46;32.90;56.90
24426;DHT22;12611;44.446;26.000;2022-08-19T11:31:16;32.80;57.60
24426;DHT22;12611;44.446;26.000;2022-08-19T11:33:46;32.80;57.10
24426;DHT22;12611;44.446;26.000;2022-08-19T11:36:18;32.90;57.30
24426;DHT22;12611;44.446;26.000;2022-08-19T11:38:47;33.00;57.30
24426;DHT22;12611;44.446;26.000;2022-08-19T11:41:17;33.00;56.80
24426;DHT22;12611;44.446;26.000;2022-08-19T11:43:48;33.00;56.60
24426;DHT22;12611;44.446;26.000;2022-08-19T11:46:17;33.10;56.70
24426;DHT22;12611;44.446;26.000;2022-08-19T11:48:45;33.20;56.50
24426;DHT22;12611;44.446;26.000;2022-08-19T11:51:20;33.20;56.20
24426;DHT22;12611;44.446;26.000;2022-08-19T11:54:00;33.30;54.60
24426;DHT22;12611;44.446;26.000;2022-08-19T11:56:30;33.40;53.90
24426;DHT22;12611;44.446;26.000;2022-08-19T11:59:00;33.40;54.40
24426;DHT22;12611;44.446;26.000;2022-08-19T12:01:29;33.50;54.70
24426;DHT22;12611;44.446;26.000;2022-08-19T12:03:59;33.50;54.80
24426;DHT22;12611;44.446;26.000;2022-08-19T12:06:30;33.40;54.90
24426;DHT22;12611;44.446;26.000;2022-08-19T12:09:02;33.40;54.80
24426;DHT22;12611;44.446;26.000;2022-08-19T12:11:32;33.40;54.10
24426;DHT22;12611;44.446;26.000;2022-08-19T12:14:02;33.40;53.90
24426;DHT22;12611;44.446;26.000;2022-08-19T12:16:31;33.40;54.20
24426;DHT22;12611;44.446;26.000;2022-08-19T12:19:08;33.40;54.40
24426;DHT22;12611;44.446;26.000;2022-08-19T12:21:36;33.30;54.40
24426;DHT22;12611;44.446;26.000;2022-08-19T12:24:06;33.30;54.50
24426;DHT22;12611;44.446;26.000;2022-08-19T12:26:37;33.30;54.70
24426;DHT22;12611;44.446;26.000;2022-08-19T12:29:21;33.40;55.00
24426;DHT22;12611;44.446;26.000;2022-08-19T12:31:56;33.40;55.10
24426;DHT22;12611;44.446;26.000;2022-08-19T12:34:31;33.50;55.20
24426;DHT22;12611;44.446;26.000;2022-08-19T12:37:03;33.50;54.30
24426;DHT22;12611;44.446;26.000;2022-08-19T12:39:35;33.60;53.90
24426;DHT22;12611;44.446;26.000;2022-08-19T12:42:04;33.70;53.90
24426;DHT22;12611;44.446;26.000;2022-08-19T12:44:38;33.70;54.00
24426;DHT22;12611;44.446;26.000;2022-08-19T12:47:10;33.70;53.40
24426;DHT22;12611;44.446;26.000;2022-08-19T12:49:39;33.60;53.10
24426;DHT22;12611;44.446;26.000;2022-08-19T12:52:22;33.60;53.10
24426;DHT22;12611;44.446;26.000;2022-08-19T12:54:51;33.60;52.70
24426;DHT22;12611;44.446;26.000;2022-08-19T12:57:22;33.60;52.10
24426;DHT22;12611;44.446;26.000;2022-08-19T13:00:04;33.50;52.40
24426;DHT22;12611;44.446;26.000;2022-08-19T13:02:34;33.50;52.80
24426;DHT22;12611;44.446;26.000;2022-08-19T13:05:06;33.50;53.00
24426;DHT22;12611;44.446;26.000;2022-08-19T13:07:35;33.40;53.20
24426;DHT22;12611;44.446;26.000;2022-08-19T13:10:06;33.50;53.50
24426;DHT22;12611;44.446;26.000;2022-08-19T13:12:36;33.60;53.70
24426;DHT22;12611;44.446;26.000;2022-08-19T13:15:08;33.60;53.60
24426;DHT22;12611;44.446;26.000;2022-08-19T13:17:38;33.60;53.60
24426;DHT22;12611;44.446;26.000;2022-08-19T13:20:08;33.60;53.50
24426;DHT22;12611;44.446;26.000;2022-08-19T13:22:38;33.50;53.20
24426;DHT22;12611;44.446;26.000;2022-08-19T13:25:08;33.40;53.00
24426;DHT22;12611;44.446;26.000;2022-08-19T13:27:37;33.50;52.80
24426;DHT22;12611;44.446;26.000;2022-08-19T13:30:10;33.40;52.60
24426;DHT22;12611;44.446;26.000;2022-08-19T13:32:56;33.40;52.40
24426;DHT22;12611;44.446;26.000;2022-08-19T13:35:44;33.40;52.50
24426;DHT22;12611;44.446;26.000;2022-08-19T13:38:14;33.40;52.40
24426;DHT22;12611;44.446;26.000;2022-08-19T13:40:44;33.50;52.50
24426;DHT22;12611;44.446;26.000;2022-08-19T13:43:13;33.60;52.30
24426;DHT22;12611;44.446;26.000;2022-08-19T13:45:51;33.60;52.30
24426;DHT22;12611;44.446;26.000;2022-08-19T13:48:23;33.70;52.30
24426;DHT22;12611;44.446;26.000;2022-08-19T13:50:54;33.80;52.10
24426;DHT22;12611;44.446;26.000;2022-08-19T13:53:22;33.80;51.20
24426;DHT22;12611;44.446;26.000;2022-08-19T13:55:51;33.90;51.40
24426;DHT22;12611;44.446;26.000;2022-08-19T13:58:20;34.00;51.50
24426;DHT22;12611;44.446;26.000;2022-08-19T14:00:51;34.00;51.40
24426;DHT22;12611;44.446;26.000;2022-08-19T14:03:19;34.10;51.60
24426;DHT22;12611;44.446;26.000;2022-08-19T14:05:48;34.10;51.60
24426;DHT22;12611;44.446;26.000;2022-08-19T14:08:17;34.20;51.90
24426;DHT22;12611;44.446;26.000;2022-08-19T14:10:45;34.20;51.70
24426;DHT22;12611;44.446;26.000;2022-08-19T14:13:18;34.20;50.70
24426;DHT22;12611;44.446;26.000;2022-08-19T14:15:47;34.30;51.10
24426;DHT22;12611;44.446;26.000;2022-08-19T14:18:18;34.30;51.20
24426;DHT22;12611;44.446;26.000;2022-08-19T14:20:47;34.30;51.10
24426;DHT22;12611;44.446;26.000;2022-08-19T14:23:16;34.40;51.10
24426;DHT22;12611;44.446;26.000;2022-08-19T14:25:47;34.40;51.00
24426;DHT22;12611;44.446;26.000;2022-08-19T14:28:16;34.40;50.60
24426;DHT22;12611;44.446;26.000;2022-08-19T14:30:44;34.40;50.60
24426;DHT22;12611;44.446;26.000;2022-08-19T14:33:13;34.40;50.80
24426;DHT22;12611;44.446;26.000;2022-08-19T14:35:43;34.50;50.70
24426;DHT22;12611;44.446;26.000;2022-08-19T14:38:16;34.60;50.70
24426;DHT22;12611;44.446;26.000;2022-08-19T14:40:54;34.60;50.40
24426;DHT22;12611;44.446;26.000;2022-08-19T14:43:27;34.70;50.20
24426;DHT22;12611;44.446;26.000;2022-08-19T14:45:56;34.70;50.20
24426;DHT22;12611;44.446;26.000;2022-08-19T14:48:25;34.80;50.20
24426;DHT22;12611;44.446;26.000;2022-08-19T14:50:56;34.90;50.50
24426;DHT22;12611;44.446;26.000;2022-08-19T14:53:25;34.90;50.60
24426;DHT22;12611;44.446;26.000;2022-08-19T14:55:53;35.10;50.50
24426;DHT22;12611;44.446;26.000;2022-08-19T14:58:22;35.20;50.10
24426;DHT22;12611;44.446;26.000;2022-08-19T15:00:57;35.30;50.10
24426;DHT22;12611;44.446;26.000;2022-08-19T15:03:26;35.30;49.80
24426;DHT22;12611;44.446;26.000;2022-08-19T15:05:56;35.70;49.70
24426;DHT22;12611;44.446;26.000;2022-08-19T15:08:25;35.80;49.50
24426;DHT22;12611;44.446;26.000;2022-08-19T15:10:54;35.70;49.60
24426;DHT22;12611;44.446;26.000;2022-08-19T15:13:24;35.60;49.50
24426;DHT22;12611;44.446;26.000;2022-08-19T15:15:53;35.90;49.20
24426;DHT22;12611;44.446;26.000;2022-08-19T15:18:22;36.20;48.50
24426;DHT22;12611;44.446;26.000;2022-08-19T15:20:51;36.00;48.30
24426;DHT22;12611;44.446;26.000;2022-08-19T15:23:21;35.80;47.80
24426;DHT22;12611;44.446;26.000;2022-08-19T15:25:50;35.60;48.10
24426;DHT22;12611;44.446;26.000;2022-08-19T15:28:23;35.50;48.20
24426;DHT22;12611;44.446;26.000;2022-08-19T15:30:52;35.40;48.30
24426;DHT22;12611;44.446;26.000;2022-08-19T15:33:21;35.30;48.50
24426;DHT22;12611;44.446;26.000;2022-08-19T15:35:51;35.20;48.60
24426;DHT22;12611;44.446;26.000;2022-08-19T15:38:26;35.10;48.60
24426;DHT22;12611;44.446;26.000;2022-08-19T15:40:54;35.00;48.60
24426;DHT22;12611;44.446;26.000;2022-08-19T15:43:43;34.90;48.70
24426;DHT22;12611;44.446;26.000;2022-08-19T15:46:11;34.90;48.80
24426;DHT22;12611;44.446;26.000;2022-08-19T15:48:42;34.70;48.60
24426;DHT22;12611;44.446;26.000;2022-08-19T15:51:22;34.60;48.70
24426;DHT22;12611;44.446;26.000;2022-08-19T15:53:54;34.60;48.90
24426;DHT22;12611;44.446;26.000;2022-08-19T15:56:23;34.50;49.10